createdAt,value
2022-09-18T00:01:32.079Z,19.20
2022-09-18T00:04:02.206Z,19.20
2022-09-18T00:06:32.046Z,19.20
2022-09-18T00:09:01.882Z,19.20
2022-09-18T00:11:35.181Z,19.20
2022-09-18T00:14:03.130Z,19.20
2022-09-18T00:16:31.042Z,19.20
2022-09-18T00:18:59.296Z,19.20
2022-09-18T00:21:28.168Z,19.20
2022-09-18T00:23:57.988Z,19.20
2022-09-18T00:26:26.009Z,19.20
2022-09-18T00:28:55.685Z,19.20
2022-09-18T00:31:25.586Z,19.20
2022-09-18T00:33:53.523Z,19.20
2022-09-18T00:36:21.909Z,19.20
2022-09-18T00:38:50.476Z,19.10
2022-09-18T00:41:23.771Z,19.10
2022-09-18T00:43:52.268Z,19.10
2022-09-18T00:46:27.469Z,19.10
2022-09-18T00:49:05.019Z,19.10
2022-09-18T00:51:35.338Z,19.10
2022-09-18T00:54:10.463Z,19.10
2022-09-18T00:56:38.946Z,19.10
2022-09-18T00:59:06.877Z,19.10
2022-09-18T01:01:36.061Z,19.10
2022-09-18T01:04:04.017Z,19.10
2022-09-18T01:06:36.892Z,19.10
2022-09-18T01:09:12.631Z,19.10
2022-09-18T01:11:51.915Z,19.10
2022-09-18T01:14:29.503Z,19.10
2022-09-18T01:17:09.190Z,19.10
2022-09-18T01:20:07.551Z,19.10
2022-09-18T01:22:48.624Z,19.10
2022-09-18T01:25:23.341Z,19.10
2022-09-18T01:28:08.426Z,19.10
2022-09-18T01:30:40.320Z,19.10
2022-09-18T01:33:11.706Z,19.10
2022-09-18T01:35:43.980Z,19.10
2022-09-18T01:38:16.609Z,19.10
2022-09-18T01:40:49.301Z,19.10
2022-09-18T01:43:21.025Z,19.10
2022-09-18T01:45:53.032Z,19.10
2022-09-18T01:48:27.760Z,19.10
2022-09-18T01:50:59.493Z,19.10
2022-09-18T01:53:32.675Z,19.00
2022-09-18T01:56:07.091Z,19.00
2022-09-18T01:58:37.508Z,19.10
2022-09-18T02:01:10.207Z,19.00
2022-09-18T02:03:45.109Z,19.10
2022-09-18T02:06:17.574Z,19.00
2022-09-18T02:08:48.776Z,19.00
2022-09-18T02:11:18.415Z,19.00
2022-09-18T02:13:52.559Z,19.10
2022-09-18T02:16:26.684Z,19.10
2022-09-18T02:18:57.879Z,19.10
2022-09-18T02:21:29.904Z,19.00
2022-09-18T02:24:03.960Z,19.00
2022-09-18T02:26:33.597Z,19.00
2022-09-18T02:29:04.690Z,19.00
2022-09-18T02:31:32.614Z,19.00
2022-09-18T02:34:00.505Z,19.00
2022-09-18T02:36:48.276Z,19.00
2022-09-18T02:39:40.502Z,19.00
2022-09-18T02:42:22.734Z,19.00
2022-09-18T02:44:59.940Z,19.00
2022-09-18T02:47:36.751Z,19.00
2022-09-18T02:50:14.307Z,19.00
2022-09-18T02:52:51.287Z,19.00
2022-09-18T02:55:23.200Z,19.00
2022-09-18T02:57:55.000Z,19.00
2022-09-18T03:00:25.830Z,19.00
2022-09-18T03:02:53.818Z,19.00
2022-09-18T03:05:21.785Z,19.00
2022-09-18T03:07:49.617Z,19.00
2022-09-18T03:10:17.740Z,19.00
2022-09-18T03:12:45.551Z,19.00
2022-09-18T03:15:13.410Z,19.00
2022-09-18T03:17:42.586Z,19.00
2022-09-18T03:20:10.818Z,19.00
2022-09-18T03:22:38.977Z,19.00
2022-09-18T03:25:08.072Z,19.00
2022-09-18T03:27:35.890Z,19.00
2022-09-18T03:30:03.825Z,19.00
2022-09-18T03:32:32.383Z,18.90
2022-09-18T03:35:01.554Z,18.90
2022-09-18T03:37:29.388Z,18.90
2022-09-18T03:39:57.260Z,18.90
2022-09-18T03:42:25.088Z,18.90
2022-09-18T03:44:52.969Z,18.90
2022-09-18T03:47:20.765Z,18.90
2022-09-18T03:49:48.600Z,18.90
2022-09-18T03:52:18.049Z,18.90
2022-09-18T03:54:46.105Z,18.90
2022-09-18T03:57:13.923Z,18.90
2022-09-18T03:59:41.767Z,18.90
2022-09-18T04:02:09.612Z,18.90
2022-09-18T04:04:37.476Z,18.90
2022-09-18T04:07:05.316Z,18.90
2022-09-18T04:09:34.586Z,18.90
2022-09-18T04:12:02.693Z,18.90
2022-09-18T04:14:30.971Z,18.90
2022-09-18T04:16:58.808Z,18.90
2022-09-18T04:19:26.644Z,18.90
2022-09-18T04:21:54.445Z,18.90
2022-09-18T04:24:22.298Z,18.90
2022-09-18T04:26:51.484Z,18.90
2022-09-18T04:29:19.347Z,18.90
2022-09-18T04:31:47.312Z,18.90
2022-09-18T04:34:22.607Z,18.90
2022-09-18T04:36:50.426Z,18.90
2022-09-18T04:39:18.959Z,18.90
2022-09-18T04:41:46.792Z,18.90
2022-09-18T04:44:15.953Z,18.90
2022-09-18T04:46:43.962Z,18.90
2022-09-18T04:49:11.844Z,18.90
2022-09-18T04:51:39.760Z,18.90
2022-09-18T04:54:07.590Z,18.90
2022-09-18T04:56:35.403Z,18.80
2022-09-18T04:59:03.417Z,18.90
2022-09-18T05:01:32.607Z,18.90
2022-09-18T05:04:00.417Z,18.90
2022-09-18T05:06:28.309Z,18.80
2022-09-18T05:08:56.101Z,18.80
2022-09-18T05:11:24.073Z,18.80
2022-09-18T05:13:56.456Z,18.80
2022-09-18T05:16:24.715Z,18.80
2022-09-18T05:18:54.559Z,18.80
2022-09-18T05:21:22.396Z,18.80
2022-09-18T05:23:50.339Z,18.80
2022-09-18T05:26:18.287Z,18.80
2022-09-18T05:28:49.358Z,18.80
2022-09-18T05:31:17.225Z,18.80
2022-09-18T05:33:45.316Z,18.80
2022-09-18T05:36:14.481Z,18.80
2022-09-18T05:38:42.325Z,18.80
2022-09-18T05:41:10.429Z,18.80
2022-09-18T05:43:38.244Z,18.80
2022-09-18T05:46:06.488Z,18.80
2022-09-18T05:48:34.278Z,18.80
2022-09-18T05:51:02.094Z,18.80
2022-09-18T05:53:31.254Z,18.80
2022-09-18T05:56:00.572Z,18.80
2022-09-18T05:58:28.429Z,18.80
2022-09-18T06:00:58.760Z,18.80
2022-09-18T06:03:26.760Z,18.80
2022-09-18T06:05:55.874Z,18.80
2022-09-18T06:08:24.244Z,18.80
2022-09-18T06:10:54.723Z,18.80
2022-09-18T06:13:22.566Z,18.80
2022-09-18T06:15:52.827Z,18.80
2022-09-18T06:18:20.976Z,18.80
2022-09-18T06:20:54.275Z,18.70
2022-09-18T06:23:23.535Z,18.70
2022-09-18T06:25:59.630Z,18.80
2022-09-18T06:28:28.207Z,18.70
2022-09-18T06:30:56.083Z,18.70
2022-09-18T06:33:24.018Z,18.70
2022-09-18T06:35:51.925Z,18.70
2022-09-18T06:38:19.723Z,18.70
2022-09-18T06:40:50.945Z,18.70
2022-09-18T06:43:21.061Z,18.70
2022-09-18T06:45:53.275Z,18.70
2022-09-18T06:48:21.552Z,18.70
2022-09-18T06:50:53.320Z,18.70
2022-09-18T06:53:21.541Z,18.70
2022-09-18T06:55:49.783Z,18.70
2022-09-18T06:58:18.441Z,18.70
2022-09-18T07:00:47.787Z,18.70
2022-09-18T07:03:15.691Z,18.70
2022-09-18T07:05:45.975Z,18.70
2022-09-18T07:08:14.251Z,18.70
2022-09-18T07:10:42.100Z,18.70
2022-09-18T07:13:10.210Z,18.70
2022-09-18T07:15:38.072Z,18.70
2022-09-18T07:18:08.064Z,18.70
2022-09-18T07:20:35.956Z,18.70
2022-09-18T07:23:04.190Z,18.70
2022-09-18T07:25:34.406Z,18.70
2022-09-18T07:28:08.162Z,18.70
2022-09-18T07:30:36.409Z,18.70
2022-09-18T07:33:05.013Z,18.70
2022-09-18T07:35:34.485Z,18.70
2022-09-18T07:38:03.297Z,18.70
2022-09-18T07:40:31.344Z,18.70
2022-09-18T07:43:00.521Z,18.70
2022-09-18T07:45:28.773Z,18.70
2022-09-18T07:47:56.967Z,18.70
2022-09-18T07:50:24.811Z,18.70
2022-09-18T07:52:56.090Z,18.70
2022-09-18T07:55:25.712Z,18.70
2022-09-18T07:57:57.601Z,18.60
2022-09-18T08:00:25.903Z,18.60
2022-09-18T08:03:02.223Z,18.60
2022-09-18T08:05:30.099Z,18.60
2022-09-18T08:08:03.179Z,18.70
2022-09-18T08:10:31.167Z,18.60
2022-09-18T08:12:59.036Z,18.60
2022-09-18T08:15:26.964Z,18.60
2022-09-18T08:17:54.745Z,18.60
2022-09-18T08:20:22.625Z,18.60
2022-09-18T08:22:50.849Z,18.60
2022-09-18T08:25:21.122Z,18.60
2022-09-18T08:27:48.950Z,18.60
2022-09-18T08:30:17.549Z,18.60
2022-09-18T08:32:45.371Z,18.60
2022-09-18T08:35:13.266Z,18.60
2022-09-18T08:37:48.828Z,18.60
2022-09-18T08:40:22.027Z,18.60
2022-09-18T08:43:06.106Z,18.60
2022-09-18T08:45:47.203Z,18.60
2022-09-18T08:48:20.191Z,18.60
2022-09-18T08:50:56.898Z,18.60
2022-09-18T08:53:29.662Z,18.60
2022-09-18T08:56:01.624Z,18.60
2022-09-18T08:58:35.476Z,18.60
2022-09-18T09:01:09.307Z,18.60
2022-09-18T09:03:48.949Z,18.60
2022-09-18T09:06:38.296Z,18.60
2022-09-18T09:09:21.555Z,18.60
2022-09-18T09:12:00.462Z,18.60
2022-09-18T09:14:57.282Z,18.60
2022-09-18T09:17:40.014Z,18.60
2022-09-18T09:20:20.921Z,18.60
2022-09-18T09:22:57.261Z,18.60
2022-09-18T09:25:32.135Z,18.60
2022-09-18T09:28:15.679Z,18.60
2022-09-18T09:30:47.455Z,18.50
2022-09-18T09:33:22.665Z,18.50
2022-09-18T09:35:55.183Z,18.50
2022-09-18T09:38:47.958Z,18.60
2022-09-18T09:41:23.974Z,18.50
2022-09-18T09:44:00.970Z,18.50
2022-09-18T09:46:54.822Z,18.50
2022-09-18T09:49:26.666Z,18.50
2022-09-18T09:52:02.825Z,18.50
2022-09-18T09:54:33.672Z,18.50
2022-09-18T09:57:12.886Z,18.50
2022-09-18T09:59:49.284Z,18.60
2022-09-18T10:02:38.759Z,18.50
2022-09-18T10:05:18.548Z,18.60
2022-09-18T10:07:51.529Z,18.60
2022-09-18T10:10:26.080Z,18.50
2022-09-18T10:12:57.442Z,18.50
2022-09-18T10:15:34.665Z,18.50
2022-09-18T10:18:05.881Z,18.50
2022-09-18T10:20:34.981Z,18.50
2022-09-18T10:23:09.888Z,18.50
2022-09-18T10:25:44.119Z,18.50
2022-09-18T10:28:14.104Z,18.50
2022-09-18T10:31:01.612Z,18.50
2022-09-18T10:33:35.905Z,18.50
2022-09-18T10:36:26.869Z,18.50
2022-09-18T10:38:54.807Z,18.50
2022-09-18T10:41:34.038Z,18.50
2022-09-18T10:44:23.398Z,18.50
2022-09-18T10:46:57.124Z,18.50
2022-09-18T10:49:28.855Z,18.50
2022-09-18T10:52:22.182Z,18.50
2022-09-18T10:55:12.524Z,18.50
2022-09-18T10:57:43.620Z,18.50
2022-09-18T11:00:38.822Z,18.50
2022-09-18T11:03:41.523Z,18.50
2022-09-18T11:06:18.309Z,18.50
2022-09-18T11:08:50.105Z,18.50
2022-09-18T11:11:26.755Z,18.50
2022-09-18T11:14:00.787Z,18.50
2022-09-18T11:16:30.854Z,18.50
2022-09-18T11:19:07.451Z,18.50
2022-09-18T11:21:45.218Z,18.50
2022-09-18T11:24:20.836Z,18.50
2022-09-18T11:26:51.186Z,18.50
2022-09-18T11:29:23.892Z,18.50
2022-09-18T11:31:55.402Z,18.50
2022-09-18T11:34:27.253Z,18.50
2022-09-18T11:36:59.270Z,18.50
2022-09-18T11:39:33.088Z,18.50
2022-09-18T11:42:01.488Z,18.50
2022-09-18T11:44:32.511Z,18.50
2022-09-18T11:47:26.862Z,18.50
2022-09-18T11:50:11.862Z,18.50
2022-09-18T11:52:42.606Z,18.50
2022-09-18T11:55:27.138Z,18.50
2022-09-18T11:57:58.591Z,18.50
2022-09-18T12:00:29.945Z,18.50
2022-09-18T12:03:13.503Z,18.50
2022-09-18T12:05:52.412Z,18.50
2022-09-18T12:08:26.027Z,18.50
2022-09-18T12:11:04.896Z,18.50
2022-09-18T12:13:40.150Z,18.50
2022-09-18T12:16:14.976Z,18.50
2022-09-18T12:18:50.836Z,18.50
2022-09-18T12:21:29.776Z,18.50
2022-09-18T12:23:57.615Z,18.50
2022-09-18T12:26:34.268Z,18.50
2022-09-18T12:29:15.200Z,18.50
2022-09-18T12:31:52.510Z,18.50
2022-09-18T12:34:28.554Z,18.50
2022-09-18T12:37:11.699Z,18.50
2022-09-18T12:40:06.887Z,18.50
2022-09-18T12:42:45.058Z,18.50
2022-09-18T12:46:04.178Z,18.50
2022-09-18T12:48:49.274Z,18.50
2022-09-18T12:51:31.622Z,18.40
2022-09-18T12:54:21.837Z,18.40
2022-09-18T12:57:05.644Z,18.40
2022-09-18T12:59:54.035Z,18.40
2022-09-18T13:02:34.322Z,18.40
2022-09-18T13:05:06.143Z,18.40
2022-09-18T13:07:37.957Z,18.50
2022-09-18T13:10:14.456Z,18.50
2022-09-18T13:12:47.725Z,18.50
2022-09-18T13:15:20.019Z,18.50
2022-09-18T13:17:52.141Z,18.40
2022-09-18T13:20:25.807Z,18.40
2022-09-18T13:22:54.409Z,18.40
2022-09-18T13:25:31.136Z,18.50
2022-09-18T13:28:01.787Z,18.40
2022-09-18T13:30:31.472Z,18.40
2022-09-18T13:33:00.727Z,18.50
2022-09-18T13:35:30.998Z,18.50
2022-09-18T13:38:12.245Z,18.40
2022-09-18T13:40:44.769Z,18.40
2022-09-18T13:43:25.378Z,18.40
2022-09-18T13:45:53.703Z,18.40
2022-09-18T13:48:27.141Z,18.40
2022-09-18T13:50:57.201Z,18.40
2022-09-18T13:53:42.456Z,18.40
2022-09-18T13:56:13.372Z,18.40
2022-09-18T13:59:01.882Z,18.40
2022-09-18T14:02:06.161Z,18.40
2022-09-18T14:05:03.120Z,18.40
2022-09-18T14:08:14.509Z,18.40
2022-09-18T14:11:17.338Z,18.40
2022-09-18T14:13:51.781Z,18.40
2022-09-18T14:16:35.412Z,18.40
2022-09-18T14:19:05.579Z,18.40
2022-09-18T14:21:40.258Z,18.40
2022-09-18T14:24:25.294Z,18.40
2022-09-18T14:27:02.013Z,18.40
2022-09-18T14:29:33.714Z,18.40
2022-09-18T14:32:03.180Z,18.40
2022-09-18T14:34:38.346Z,18.40
2022-09-18T14:37:25.529Z,18.40
2022-09-18T14:39:55.310Z,18.40
2022-09-18T14:42:32.672Z,18.40
2022-09-18T14:45:23.884Z,18.40
2022-09-18T14:47:51.792Z,18.40
2022-09-18T14:50:33.858Z,18.40
2022-09-18T14:53:03.574Z,18.40
2022-09-18T14:55:36.294Z,18.40
2022-09-18T14:58:08.119Z,18.40
2022-09-18T15:00:39.132Z,18.40
2022-09-18T15:03:15.025Z,18.40
2022-09-18T15:05:43.383Z,18.40
2022-09-18T15:08:17.523Z,18.40
2022-09-18T15:10:48.922Z,18.40
2022-09-18T15:13:18.304Z,18.40
2022-09-18T15:15:48.185Z,18.40
2022-09-18T15:18:20.718Z,18.40
2022-09-18T15:20:50.683Z,18.40
2022-09-18T15:23:20.145Z,18.40
2022-09-18T15:25:52.356Z,18.40
2022-09-18T15:28:22.462Z,18.40
2022-09-18T15:30:56.868Z,18.40
2022-09-18T15:33:27.251Z,18.40
2022-09-18T15:35:56.479Z,18.40
2022-09-18T15:38:27.475Z,18.40
2022-09-18T15:40:56.047Z,18.40
2022-09-18T15:43:40.974Z,18.40
2022-09-18T15:46:11.360Z,18.40
2022-09-18T15:48:45.122Z,18.40
2022-09-18T15:51:16.847Z,18.40
2022-09-18T15:54:04.155Z,18.40
2022-09-18T15:56:34.035Z,18.40
2022-09-18T15:59:04.593Z,18.40
2022-09-18T16:01:36.450Z,18.40
2022-09-18T16:04:17.893Z,18.40
2022-09-18T16:06:54.136Z,18.40
2022-09-18T16:09:35.811Z,18.40
2022-09-18T16:12:28.341Z,18.40
2022-09-18T16:15:02.878Z,18.40
2022-09-18T16:17:40.643Z,18.40
2022-09-18T16:20:37.072Z,18.40
2022-09-18T16:23:15.166Z,18.40
2022-09-18T16:25:44.860Z,18.40
2022-09-18T16:28:23.393Z,18.40
2022-09-18T16:30:51.414Z,18.40
2022-09-18T16:33:22.606Z,18.40
2022-09-18T16:35:56.986Z,18.40
2022-09-18T16:38:24.904Z,18.40
2022-09-18T16:40:52.754Z,18.40
2022-09-18T16:43:20.653Z,18.40
2022-09-18T16:45:49.070Z,18.40
2022-09-18T16:48:17.147Z,18.40
2022-09-18T16:50:47.804Z,18.40
2022-09-18T16:53:16.119Z,18.40
2022-09-18T16:55:47.699Z,18.40
2022-09-18T16:58:17.797Z,18.40
2022-09-18T17:00:45.691Z,18.40
2022-09-18T17:03:13.748Z,18.40
2022-09-18T17:05:41.618Z,18.40
2022-09-18T17:08:10.803Z,18.40
2022-09-18T17:10:42.096Z,18.40
2022-09-18T17:13:13.064Z,18.40
2022-09-18T17:15:40.946Z,18.40
2022-09-18T17:18:08.760Z,18.40
2022-09-18T17:20:36.582Z,18.40
2022-09-18T17:23:04.392Z,18.40
2022-09-18T17:25:33.629Z,18.40
2022-09-18T17:28:01.472Z,18.40
2022-09-18T17:30:29.301Z,18.40
2022-09-18T17:32:57.524Z,18.40
2022-09-18T17:35:26.282Z,18.40
2022-09-18T17:37:54.854Z,18.40
2022-09-18T17:40:22.849Z,18.40
2022-09-18T17:42:52.085Z,18.40
2022-09-18T17:45:19.885Z,18.40
2022-09-18T17:47:51.875Z,18.40
2022-09-18T17:50:20.479Z,18.40
2022-09-18T17:52:48.333Z,18.40
2022-09-18T17:55:16.643Z,18.40
2022-09-18T17:57:44.676Z,18.40
2022-09-18T18:00:14.335Z,18.40
2022-09-18T18:02:42.162Z,18.40
2022-09-18T18:05:10.167Z,18.40
2022-09-18T18:07:37.974Z,18.40
2022-09-18T18:10:06.583Z,18.40
2022-09-18T18:12:36.212Z,18.40
2022-09-18T18:15:04.255Z,18.40
2022-09-18T18:17:35.830Z,18.40
2022-09-18T18:20:06.367Z,18.40
2022-09-18T18:22:34.195Z,18.40
2022-09-18T18:25:02.385Z,18.40
2022-09-18T18:27:30.169Z,18.40
2022-09-18T18:29:58.988Z,18.40
2022-09-18T18:32:27.011Z,18.40
2022-09-18T18:34:56.425Z,18.40
2022-09-18T18:37:24.280Z,18.40
2022-09-18T18:39:52.604Z,18.40
2022-09-18T18:42:20.511Z,18.40
2022-09-18T18:44:48.316Z,18.40
2022-09-18T18:47:17.520Z,18.40
2022-09-18T18:49:45.362Z,18.40
2022-09-18T18:52:14.749Z,18.40
2022-09-18T18:54:42.743Z,18.40
2022-09-18T18:57:11.244Z,18.40
2022-09-18T18:59:39.041Z,18.40
2022-09-18T19:02:07.545Z,18.40
2022-09-18T19:04:36.244Z,18.40
2022-09-18T19:07:04.115Z,18.40
2022-09-18T19:09:33.706Z,18.40
2022-09-18T19:12:01.887Z,18.40
2022-09-18T19:14:31.600Z,18.40
2022-09-18T19:17:00.026Z,18.40
2022-09-18T19:19:29.229Z,18.40
2022-09-18T19:21:59.334Z,18.40
2022-09-18T19:24:27.579Z,18.40
2022-09-18T19:26:57.230Z,18.40
2022-09-18T19:29:25.082Z,18.40
2022-09-18T19:31:53.025Z,18.40
2022-09-18T19:34:22.047Z,18.40
2022-09-18T19:36:50.689Z,18.40
2022-09-18T19:39:20.827Z,18.40
2022-09-18T19:41:52.323Z,18.40
2022-09-18T19:44:29.001Z,18.40
2022-09-18T19:47:00.310Z,18.40
2022-09-18T19:49:33.003Z,18.40
2022-09-18T19:52:02.047Z,18.40
2022-09-18T19:54:30.954Z,18.40
2022-09-18T19:56:59.068Z,18.40
2022-09-18T19:59:28.698Z,18.40
2022-09-18T20:01:57.168Z,18.40
2022-09-18T20:04:25.127Z,18.40
2022-09-18T20:06:53.041Z,18.40
2022-09-18T20:09:22.387Z,18.40
2022-09-18T20:11:50.306Z,18.40
2022-09-18T20:14:18.957Z,18.40
2022-09-18T20:16:48.176Z,18.40
2022-09-18T20:19:15.996Z,18.40
2022-09-18T20:21:43.904Z,18.40
2022-09-18T20:24:11.884Z,18.40
2022-09-18T20:26:39.741Z,18.40
2022-09-18T20:29:07.619Z,18.40
2022-09-18T20:31:36.027Z,18.40
2022-09-18T20:34:05.852Z,18.40
2022-09-18T20:36:33.776Z,18.40
2022-09-18T20:39:03.225Z,18.40
2022-09-18T20:41:31.786Z,18.40
2022-09-18T20:44:04.786Z,18.40
2022-09-18T20:46:37.200Z,18.40
2022-09-18T20:49:07.795Z,18.40
2022-09-18T20:51:36.144Z,18.40
2022-09-18T20:54:06.907Z,18.40
2022-09-18T20:56:38.020Z,18.40
2022-09-18T20:59:07.527Z,18.40
2022-09-18T21:01:37.834Z,18.40
2022-09-18T21:04:08.897Z,18.40
2022-09-18T21:06:37.580Z,18.40
2022-09-18T21:09:08.350Z,18.40
2022-09-18T21:11:38.525Z,18.40
2022-09-18T21:14:08.598Z,18.40
2022-09-18T21:16:40.405Z,18.40
2022-09-18T21:19:11.503Z,18.40
2022-09-18T21:21:39.872Z,18.30
2022-09-18T21:24:08.843Z,18.40
2022-09-18T21:26:38.238Z,18.40
2022-09-18T21:29:08.158Z,18.30
2022-09-18T21:31:38.421Z,18.40
2022-09-18T21:34:07.156Z,18.40
2022-09-18T21:36:38.542Z,18.40
2022-09-18T21:39:08.318Z,18.40
2022-09-18T21:41:38.636Z,18.40
2022-09-18T21:44:08.792Z,18.40
2022-09-18T21:46:38.443Z,18.40
2022-09-18T21:49:08.656Z,18.40
2022-09-18T21:51:40.479Z,18.40
2022-09-18T21:54:14.190Z,18.40
2022-09-18T21:56:42.409Z,18.30
2022-09-18T21:59:11.365Z,18.40
2022-09-18T22:01:39.455Z,18.30
2022-09-18T22:04:08.401Z,18.40
2022-09-18T22:06:40.737Z,18.30
2022-09-18T22:09:10.453Z,18.30
2022-09-18T22:11:39.665Z,18.40
2022-09-18T22:14:09.593Z,18.30
2022-09-18T22:16:38.168Z,18.30
2022-09-18T22:19:08.209Z,18.30
2022-09-18T22:21:39.494Z,18.40
2022-09-18T22:24:09.199Z,18.30
2022-09-18T22:26:39.019Z,18.30
2022-09-18T22:29:09.173Z,18.30
2022-09-18T22:31:39.274Z,18.30
2022-09-18T22:34:07.555Z,18.30
2022-09-18T22:36:36.773Z,18.30
2022-09-18T22:39:04.711Z,18.30
2022-09-18T22:41:32.527Z,18.30
2022-09-18T22:44:00.403Z,18.30
2022-09-18T22:46:28.359Z,18.30
2022-09-18T22:48:56.294Z,18.30
2022-09-18T22:51:27.109Z,18.30
2022-09-18T22:53:58.933Z,18.30
2022-09-18T22:56:28.579Z,18.30
2022-09-18T22:58:57.657Z,18.30
2022-09-18T23:01:28.784Z,18.30
2022-09-18T23:03:57.930Z,18.30
2022-09-18T23:06:27.412Z,18.30
2022-09-18T23:08:59.980Z,18.30
2022-09-18T23:11:30.060Z,18.30
2022-09-18T23:13:59.454Z,18.30
2022-09-18T23:16:29.223Z,18.30
2022-09-18T23:18:59.629Z,18.30
2022-09-18T23:21:28.988Z,18.30
2022-09-18T23:23:59.218Z,18.30
2022-09-18T23:26:29.318Z,18.30
2022-09-18T23:28:59.433Z,18.30
2022-09-18T23:31:28.847Z,18.30
2022-09-18T23:33:58.794Z,18.30
2022-09-18T23:36:28.888Z,18.30
2022-09-18T23:39:00.036Z,18.30
2022-09-18T23:41:30.000Z,18.30
2022-09-18T23:43:58.023Z,18.30
2022-09-18T23:46:25.945Z,18.30
2022-09-18T23:48:55.756Z,18.30
2022-09-18T23:51:25.355Z,18.30
2022-09-18T23:53:53.748Z,18.30
2022-09-18T23:56:23.944Z,18.30
2022-09-18T23:58:55.255Z,18.30
